sensor_id;sensor_type;location;lat;lon;timestamp;P1;durP1;ratioP1;P2;durP2;ratioP2
46729;SDS011;32476;50.002;11.854;2023-02-28T00:01:32;7.10;;;4.23;;
46729;SDS011;32476;50.002;11.854;2023-02-28T00:03:58;11.77;;;4.80;;
46729;SDS011;32476;50.002;11.854;2023-02-28T00:06:25;7.23;;;5.00;;
46729;SDS011;32476;50.002;11.854;2023-02-28T00:08:53;8.80;;;4.73;;
46729;SDS011;32476;50.002;11.854;2023-02-28T00:11:19;7.27;;;5.27;;
46729;SDS011;32476;50.002;11.854;2023-02-28T00:13:45;10.27;;;5.60;;
46729;SDS011;32476;50.002;11.854;2023-02-28T00:16:15;9.60;;;4.90;;
46729;SDS011;32476;50.002;11.854;2023-02-28T00:18:44;6.63;;;4.70;;
46729;SDS011;32476;50.002;11.854;2023-02-28T00:21:14;6.90;;;5.17;;
46729;SDS011;32476;50.002;11.854;2023-02-28T00:23:41;9.37;;;4.63;;
46729;SDS011;32476;50.002;11.854;2023-02-28T00:26:07;6.50;;;4.60;;
46729;SDS011;32476;50.002;11.854;2023-02-28T00:28:34;10.67;;;5.00;;
46729;SDS011;32476;50.002;11.854;2023-02-28T00:31:00;10.23;;;5.00;;
46729;SDS011;32476;50.002;11.854;2023-02-28T00:33:27;9.00;;;4.90;;
46729;SDS011;32476;50.002;11.854;2023-02-28T00:36:02;7.17;;;4.70;;
46729;SDS011;32476;50.002;11.854;2023-02-28T00:38:33;8.70;;;5.20;;
46729;SDS011;32476;50.002;11.854;2023-02-28T00:41:01;9.47;;;5.60;;
46729;SDS011;32476;50.002;11.854;2023-02-28T00:43:30;9.93;;;4.90;;
46729;SDS011;32476;50.002;11.854;2023-02-28T00:46:02;7.10;;;4.87;;
46729;SDS011;32476;50.002;11.854;2023-02-28T00:48:28;11.00;;;5.67;;
46729;SDS011;32476;50.002;11.854;2023-02-28T00:50:54;7.77;;;5.37;;
46729;SDS011;32476;50.002;11.854;2023-02-28T00:53:22;10.73;;;5.53;;
46729;SDS011;32476;50.002;11.854;2023-02-28T00:55:48;9.43;;;5.30;;
46729;SDS011;32476;50.002;11.854;2023-02-28T00:58:15;12.67;;;5.50;;
46729;SDS011;32476;50.002;11.854;2023-02-28T01:00:43;8.63;;;5.47;;
46729;SDS011;32476;50.002;11.854;2023-02-28T01:03:14;7.90;;;5.77;;
46729;SDS011;32476;50.002;11.854;2023-02-28T01:05:44;11.53;;;5.63;;
46729;SDS011;32476;50.002;11.854;2023-02-28T01:08:10;10.87;;;5.93;;
46729;SDS011;32476;50.002;11.854;2023-02-28T01:10:36;10.20;;;5.50;;
46729;SDS011;32476;50.002;11.854;2023-02-28T01:13:04;10.93;;;6.03;;
46729;SDS011;32476;50.002;11.854;2023-02-28T01:15:31;13.60;;;5.97;;
46729;SDS011;32476;50.002;11.854;2023-02-28T01:17:57;11.60;;;5.70;;
46729;SDS011;32476;50.002;11.854;2023-02-28T01:20:25;13.90;;;5.67;;
46729;SDS011;32476;50.002;11.854;2023-02-28T01:22:51;11.90;;;5.60;;
46729;SDS011;32476;50.002;11.854;2023-02-28T01:25:17;9.97;;;5.90;;
46729;SDS011;32476;50.002;11.854;2023-02-28T01:27:44;10.27;;;5.30;;
46729;SDS011;32476;50.002;11.854;2023-02-28T01:30:10;8.63;;;5.50;;
46729;SDS011;32476;50.002;11.854;2023-02-28T01:32:36;11.37;;;6.67;;
46729;SDS011;32476;50.002;11.854;2023-02-28T01:35:04;12.50;;;6.03;;
46729;SDS011;32476;50.002;11.854;2023-02-28T01:37:30;11.30;;;6.10;;
46729;SDS011;32476;50.002;11.854;2023-02-28T01:39:56;8.43;;;5.77;;
46729;SDS011;32476;50.002;11.854;2023-02-28T01:42:23;13.23;;;6.77;;
46729;SDS011;32476;50.002;11.854;2023-02-28T01:47:40;11.00;;;5.87;;
46729;SDS011;32476;50.002;11.854;2023-02-28T01:50:09;16.33;;;6.57;;
46729;SDS011;32476;50.002;11.854;2023-02-28T01:52:48;10.30;;;5.27;;
46729;SDS011;32476;50.002;11.854;2023-02-28T01:55:16;10.50;;;6.57;;
46729;SDS011;32476;50.002;11.854;2023-02-28T01:57:48;11.17;;;7.00;;
46729;SDS011;32476;50.002;11.854;2023-02-28T02:00:20;14.00;;;7.20;;
46729;SDS011;32476;50.002;11.854;2023-02-28T02:02:54;15.97;;;6.80;;
46729;SDS011;32476;50.002;11.854;2023-02-28T02:05:24;11.27;;;6.43;;
46729;SDS011;32476;50.002;11.854;2023-02-28T02:07:55;11.47;;;6.53;;
46729;SDS011;32476;50.002;11.854;2023-02-28T02:10:29;16.00;;;6.57;;
46729;SDS011;32476;50.002;11.854;2023-02-28T02:16:01;11.80;;;6.37;;
46729;SDS011;32476;50.002;11.854;2023-02-28T02:18:53;13.20;;;6.87;;
46729;SDS011;32476;50.002;11.854;2023-02-28T02:27:44;17.67;;;6.60;;
46729;SDS011;32476;50.002;11.854;2023-02-28T02:30:44;13.87;;;7.17;;
46729;SDS011;32476;50.002;11.854;2023-02-28T02:34:01;11.47;;;6.80;;
46729;SDS011;32476;50.002;11.854;2023-02-28T02:36:53;11.57;;;6.83;;
46729;SDS011;32476;50.002;11.854;2023-02-28T02:42:49;13.53;;;7.67;;
46729;SDS011;32476;50.002;11.854;2023-02-28T02:45:46;12.70;;;7.23;;
46729;SDS011;32476;50.002;11.854;2023-02-28T02:48:20;15.10;;;8.13;;
46729;SDS011;32476;50.002;11.854;2023-02-28T02:50:52;11.40;;;6.20;;
46729;SDS011;32476;50.002;11.854;2023-02-28T02:53:30;12.80;;;7.10;;
46729;SDS011;32476;50.002;11.854;2023-02-28T02:56:01;12.37;;;7.10;;
46729;SDS011;32476;50.002;11.854;2023-02-28T02:58:33;16.53;;;7.43;;
46729;SDS011;32476;50.002;11.854;2023-02-28T03:01:08;11.93;;;7.43;;
46729;SDS011;32476;50.002;11.854;2023-02-28T03:03:39;12.50;;;7.43;;
46729;SDS011;32476;50.002;11.854;2023-02-28T03:06:06;15.50;;;7.97;;
46729;SDS011;32476;50.002;11.854;2023-02-28T03:08:36;13.87;;;8.50;;
46729;SDS011;32476;50.002;11.854;2023-02-28T03:11:06;13.87;;;7.87;;
46729;SDS011;32476;50.002;11.854;2023-02-28T03:13:49;17.80;;;8.17;;
46729;SDS011;32476;50.002;11.854;2023-02-28T03:21:56;14.47;;;7.50;;
46729;SDS011;32476;50.002;11.854;2023-02-28T03:24:50;14.77;;;8.37;;
46729;SDS011;32476;50.002;11.854;2023-02-28T03:27:34;12.80;;;7.40;;
46729;SDS011;32476;50.002;11.854;2023-02-28T03:30:22;14.97;;;7.77;;
46729;SDS011;32476;50.002;11.854;2023-02-28T03:33:06;13.90;;;7.87;;
46729;SDS011;32476;50.002;11.854;2023-02-28T03:35:55;14.37;;;7.53;;
46729;SDS011;32476;50.002;11.854;2023-02-28T03:38:35;17.17;;;8.80;;
46729;SDS011;32476;50.002;11.854;2023-02-28T03:41:22;13.17;;;8.17;;
46729;SDS011;32476;50.002;11.854;2023-02-28T03:43:58;16.10;;;9.13;;
46729;SDS011;32476;50.002;11.854;2023-02-28T03:46:42;17.00;;;8.97;;
46729;SDS011;32476;50.002;11.854;2023-02-28T03:49:32;12.80;;;8.13;;
46729;SDS011;32476;50.002;11.854;2023-02-28T03:52:08;15.60;;;8.07;;
46729;SDS011;32476;50.002;11.854;2023-02-28T03:54:44;14.83;;;9.03;;
46729;SDS011;32476;50.002;11.854;2023-02-28T04:00:21;14.70;;;7.43;;
46729;SDS011;32476;50.002;11.854;2023-02-28T04:02:59;13.13;;;8.03;;
46729;SDS011;32476;50.002;11.854;2023-02-28T04:05:27;16.53;;;9.20;;
46729;SDS011;32476;50.002;11.854;2023-02-28T04:08:02;18.93;;;9.27;;
46729;SDS011;32476;50.002;11.854;2023-02-28T04:10:32;19.37;;;8.70;;
46729;SDS011;32476;50.002;11.854;2023-02-28T04:12:58;17.73;;;8.93;;
46729;SDS011;32476;50.002;11.854;2023-02-28T04:15:24;17.10;;;8.83;;
46729;SDS011;32476;50.002;11.854;2023-02-28T04:17:54;16.50;;;8.43;;
46729;SDS011;32476;50.002;11.854;2023-02-28T04:20:20;15.83;;;8.90;;
46729;SDS011;32476;50.002;11.854;2023-02-28T04:22:46;20.33;;;8.97;;
46729;SDS011;32476;50.002;11.854;2023-02-28T04:25:13;16.20;;;9.10;;
46729;SDS011;32476;50.002;11.854;2023-02-28T04:27:39;19.03;;;9.60;;
46729;SDS011;32476;50.002;11.854;2023-02-28T04:30:05;17.73;;;8.50;;
46729;SDS011;32476;50.002;11.854;2023-02-28T04:32:33;13.83;;;9.10;;
46729;SDS011;32476;50.002;11.854;2023-02-28T04:34:59;17.20;;;8.77;;
46729;SDS011;32476;50.002;11.854;2023-02-28T04:37:25;19.43;;;10.60;;
46729;SDS011;32476;50.002;11.854;2023-02-28T04:39:55;16.57;;;9.63;;
46729;SDS011;32476;50.002;11.854;2023-02-28T04:42:21;18.43;;;10.70;;
46729;SDS011;32476;50.002;11.854;2023-02-28T04:44:47;18.23;;;9.50;;
46729;SDS011;32476;50.002;11.854;2023-02-28T04:47:14;16.63;;;9.03;;
46729;SDS011;32476;50.002;11.854;2023-02-28T04:49:40;19.00;;;9.60;;
46729;SDS011;32476;50.002;11.854;2023-02-28T04:52:06;21.30;;;9.63;;
46729;SDS011;32476;50.002;11.854;2023-02-28T04:54:34;17.60;;;9.87;;
46729;SDS011;32476;50.002;11.854;2023-02-28T04:57:00;14.77;;;8.93;;
46729;SDS011;32476;50.002;11.854;2023-02-28T04:59:26;20.37;;;9.93;;
46729;SDS011;32476;50.002;11.854;2023-02-28T05:01:54;17.53;;;10.57;;
46729;SDS011;32476;50.002;11.854;2023-02-28T05:04:20;17.20;;;9.87;;
46729;SDS011;32476;50.002;11.854;2023-02-28T05:06:47;15.77;;;9.60;;
46729;SDS011;32476;50.002;11.854;2023-02-28T05:09:14;22.93;;;11.83;;
46729;SDS011;32476;50.002;11.854;2023-02-28T05:11:40;20.43;;;11.17;;
46729;SDS011;32476;50.002;11.854;2023-02-28T05:14:10;21.00;;;10.77;;
46729;SDS011;32476;50.002;11.854;2023-02-28T05:16:39;25.20;;;12.70;;
46729;SDS011;32476;50.002;11.854;2023-02-28T05:19:05;20.10;;;10.47;;
46729;SDS011;32476;50.002;11.854;2023-02-28T05:21:32;21.10;;;11.70;;
46729;SDS011;32476;50.002;11.854;2023-02-28T05:24:03;26.93;;;14.10;;
46729;SDS011;32476;50.002;11.854;2023-02-28T05:26:34;18.53;;;9.80;;
46729;SDS011;32476;50.002;11.854;2023-02-28T05:29:04;27.97;;;13.27;;
46729;SDS011;32476;50.002;11.854;2023-02-28T05:31:30;23.77;;;10.80;;
46729;SDS011;32476;50.002;11.854;2023-02-28T05:33:56;17.87;;;9.80;;
46729;SDS011;32476;50.002;11.854;2023-02-28T05:36:24;15.97;;;9.53;;
46729;SDS011;32476;50.002;11.854;2023-02-28T05:38:50;34.03;;;15.77;;
46729;SDS011;32476;50.002;11.854;2023-02-28T05:41:17;21.13;;;9.90;;
46729;SDS011;32476;50.002;11.854;2023-02-28T05:43:47;22.77;;;12.03;;
46729;SDS011;32476;50.002;11.854;2023-02-28T05:46:13;19.90;;;10.43;;
46729;SDS011;32476;50.002;11.854;2023-02-28T05:48:40;22.37;;;11.13;;
46729;SDS011;32476;50.002;11.854;2023-02-28T05:51:09;17.50;;;9.57;;
46729;SDS011;32476;50.002;11.854;2023-02-28T05:53:35;18.47;;;10.37;;
46729;SDS011;32476;50.002;11.854;2023-02-28T05:56:01;19.63;;;9.93;;
46729;SDS011;32476;50.002;11.854;2023-02-28T05:58:29;16.63;;;10.70;;
46729;SDS011;32476;50.002;11.854;2023-02-28T06:00:56;17.00;;;10.50;;
46729;SDS011;32476;50.002;11.854;2023-02-28T06:03:24;20.93;;;10.37;;
46729;SDS011;32476;50.002;11.854;2023-02-28T06:05:52;21.23;;;11.30;;
46729;SDS011;32476;50.002;11.854;2023-02-28T06:08:18;24.70;;;11.70;;
46729;SDS011;32476;50.002;11.854;2023-02-28T06:10:44;20.47;;;10.97;;
46729;SDS011;32476;50.002;11.854;2023-02-28T06:13:12;20.20;;;11.43;;
46729;SDS011;32476;50.002;11.854;2023-02-28T06:15:38;21.57;;;11.43;;
46729;SDS011;32476;50.002;11.854;2023-02-28T06:18:04;22.97;;;12.13;;
46729;SDS011;32476;50.002;11.854;2023-02-28T06:20:31;20.93;;;11.33;;
46729;SDS011;32476;50.002;11.854;2023-02-28T06:22:58;24.90;;;12.20;;
46729;SDS011;32476;50.002;11.854;2023-02-28T06:25:25;30.23;;;13.97;;
46729;SDS011;32476;50.002;11.854;2023-02-28T06:27:54;24.23;;;11.90;;
46729;SDS011;32476;50.002;11.854;2023-02-28T06:30:20;23.40;;;12.60;;
46729;SDS011;32476;50.002;11.854;2023-02-28T06:32:50;25.73;;;13.90;;
46729;SDS011;32476;50.002;11.854;2023-02-28T06:35:18;22.87;;;11.87;;
46729;SDS011;32476;50.002;11.854;2023-02-28T06:37:44;26.23;;;12.03;;
46729;SDS011;32476;50.002;11.854;2023-02-28T06:40:10;25.63;;;13.10;;
46729;SDS011;32476;50.002;11.854;2023-02-28T06:42:39;24.37;;;13.17;;
46729;SDS011;32476;50.002;11.854;2023-02-28T06:45:06;19.80;;;11.27;;
46729;SDS011;32476;50.002;11.854;2023-02-28T06:47:34;22.00;;;11.73;;
46729;SDS011;32476;50.002;11.854;2023-02-28T06:50:03;20.27;;;11.97;;
46729;SDS011;32476;50.002;11.854;2023-02-28T06:52:31;23.43;;;12.27;;
46729;SDS011;32476;50.002;11.854;2023-02-28T06:54:57;26.67;;;11.80;;
46729;SDS011;32476;50.002;11.854;2023-02-28T06:57:28;22.23;;;13.27;;
46729;SDS011;32476;50.002;11.854;2023-02-28T06:59:59;23.97;;;12.27;;
46729;SDS011;32476;50.002;11.854;2023-02-28T07:02:28;20.70;;;11.77;;
46729;SDS011;32476;50.002;11.854;2023-02-28T07:04:54;21.77;;;11.23;;
46729;SDS011;32476;50.002;11.854;2023-02-28T07:07:19;24.50;;;12.03;;
46729;SDS011;32476;50.002;11.854;2023-02-28T07:09:47;19.83;;;11.40;;
46729;SDS011;32476;50.002;11.854;2023-02-28T07:12:13;22.50;;;11.07;;
46729;SDS011;32476;50.002;11.854;2023-02-28T07:14:39;21.30;;;11.27;;
46729;SDS011;32476;50.002;11.854;2023-02-28T07:17:07;23.00;;;11.07;;
46729;SDS011;32476;50.002;11.854;2023-02-28T07:19:37;17.37;;;10.23;;
46729;SDS011;32476;50.002;11.854;2023-02-28T07:22:04;19.40;;;10.47;;
46729;SDS011;32476;50.002;11.854;2023-02-28T07:24:33;18.10;;;10.73;;
46729;SDS011;32476;50.002;11.854;2023-02-28T07:26:59;19.83;;;9.63;;
46729;SDS011;32476;50.002;11.854;2023-02-28T07:29:26;20.80;;;10.17;;
46729;SDS011;32476;50.002;11.854;2023-02-28T07:31:54;18.53;;;10.50;;
46729;SDS011;32476;50.002;11.854;2023-02-28T07:34:20;15.77;;;10.03;;
46729;SDS011;32476;50.002;11.854;2023-02-28T07:36:46;16.87;;;9.33;;
46729;SDS011;32476;50.002;11.854;2023-02-28T07:39:14;18.90;;;9.33;;
46729;SDS011;32476;50.002;11.854;2023-02-28T07:41:40;16.80;;;9.77;;
46729;SDS011;32476;50.002;11.854;2023-02-28T07:44:09;17.83;;;10.90;;
46729;SDS011;32476;50.002;11.854;2023-02-28T07:46:37;18.00;;;10.57;;
46729;SDS011;32476;50.002;11.854;2023-02-28T07:49:03;19.70;;;10.50;;
46729;SDS011;32476;50.002;11.854;2023-02-28T07:51:30;17.17;;;10.03;;
46729;SDS011;32476;50.002;11.854;2023-02-28T07:53:57;18.60;;;10.37;;
46729;SDS011;32476;50.002;11.854;2023-02-28T07:56:23;21.60;;;10.63;;
46729;SDS011;32476;50.002;11.854;2023-02-28T07:58:49;22.10;;;11.70;;
46729;SDS011;32476;50.002;11.854;2023-02-28T08:01:17;17.13;;;10.27;;
46729;SDS011;32476;50.002;11.854;2023-02-28T08:03:44;18.93;;;10.47;;
46729;SDS011;32476;50.002;11.854;2023-02-28T08:06:15;19.37;;;9.97;;
46729;SDS011;32476;50.002;11.854;2023-02-28T08:08:45;17.97;;;9.87;;
46729;SDS011;32476;50.002;11.854;2023-02-28T08:11:12;18.17;;;9.80;;
46729;SDS011;32476;50.002;11.854;2023-02-28T08:13:38;16.63;;;10.20;;
46729;SDS011;32476;50.002;11.854;2023-02-28T08:16:06;16.63;;;9.97;;
46729;SDS011;32476;50.002;11.854;2023-02-28T08:18:32;18.53;;;10.43;;
46729;SDS011;32476;50.002;11.854;2023-02-28T08:20:59;14.93;;;9.17;;
46729;SDS011;32476;50.002;11.854;2023-02-28T08:23:32;18.60;;;10.33;;
46729;SDS011;32476;50.002;11.854;2023-02-28T08:25:58;16.30;;;10.10;;
46729;SDS011;32476;50.002;11.854;2023-02-28T08:28:24;16.57;;;9.07;;
46729;SDS011;32476;50.002;11.854;2023-02-28T08:30:52;18.83;;;10.70;;
46729;SDS011;32476;50.002;11.854;2023-02-28T08:33:18;14.10;;;9.00;;
46729;SDS011;32476;50.002;11.854;2023-02-28T08:35:44;17.33;;;9.83;;
46729;SDS011;32476;50.002;11.854;2023-02-28T08:38:12;18.00;;;10.07;;
46729;SDS011;32476;50.002;11.854;2023-02-28T08:40:38;18.53;;;9.77;;
46729;SDS011;32476;50.002;11.854;2023-02-28T08:43:05;22.67;;;11.10;;
46729;SDS011;32476;50.002;11.854;2023-02-28T08:45:32;21.20;;;11.30;;
46729;SDS011;32476;50.002;11.854;2023-02-28T08:47:58;15.43;;;9.63;;
46729;SDS011;32476;50.002;11.854;2023-02-28T08:50:24;19.87;;;10.77;;
46729;SDS011;32476;50.002;11.854;2023-02-28T08:52:51;16.93;;;9.33;;
46729;SDS011;32476;50.002;11.854;2023-02-28T08:55:17;19.53;;;10.67;;
46729;SDS011;32476;50.002;11.854;2023-02-28T08:57:43;17.83;;;10.83;;
46729;SDS011;32476;50.002;11.854;2023-02-28T09:00:11;19.87;;;10.67;;
46729;SDS011;32476;50.002;11.854;2023-02-28T09:02:39;19.43;;;8.60;;
46729;SDS011;32476;50.002;11.854;2023-02-28T09:05:22;20.90;;;10.03;;
46729;SDS011;32476;50.002;11.854;2023-02-28T09:07:49;17.60;;;10.37;;
46729;SDS011;32476;50.002;11.854;2023-02-28T09:10:16;20.87;;;10.10;;
46729;SDS011;32476;50.002;11.854;2023-02-28T09:12:43;17.23;;;10.47;;
46729;SDS011;32476;50.002;11.854;2023-02-28T09:15:11;17.50;;;9.53;;
46729;SDS011;32476;50.002;11.854;2023-02-28T09:17:39;16.13;;;8.70;;
46729;SDS011;32476;50.002;11.854;2023-02-28T09:20:05;17.10;;;9.17;;
46729;SDS011;32476;50.002;11.854;2023-02-28T09:22:32;20.80;;;9.77;;
46729;SDS011;32476;50.002;11.854;2023-02-28T09:24:59;15.83;;;9.53;;
46729;SDS011;32476;50.002;11.854;2023-02-28T09:27:25;18.97;;;10.30;;
46729;SDS011;32476;50.002;11.854;2023-02-28T09:29:51;17.77;;;8.83;;
46729;SDS011;32476;50.002;11.854;2023-02-28T09:32:18;15.13;;;8.63;;
46729;SDS011;32476;50.002;11.854;2023-02-28T09:34:44;14.83;;;8.23;;
46729;SDS011;32476;50.002;11.854;2023-02-28T09:37:10;15.13;;;8.10;;
46729;SDS011;32476;50.002;11.854;2023-02-28T09:39:38;15.43;;;8.43;;
46729;SDS011;32476;50.002;11.854;2023-02-28T09:42:04;15.47;;;9.13;;
46729;SDS011;32476;50.002;11.854;2023-02-28T09:44:37;14.63;;;8.10;;
46729;SDS011;32476;50.002;11.854;2023-02-28T09:47:21;12.93;;;7.73;;
46729;SDS011;32476;50.002;11.854;2023-02-28T09:52:45;11.27;;;6.80;;
46729;SDS011;32476;50.002;11.854;2023-02-28T09:57:58;14.83;;;7.97;;
46729;SDS011;32476;50.002;11.854;2023-02-28T10:00:36;11.80;;;7.30;;
46729;SDS011;32476;50.002;11.854;2023-02-28T10:03:15;12.73;;;6.53;;
46729;SDS011;32476;50.002;11.854;2023-02-28T10:08:38;16.57;;;8.40;;
46729;SDS011;32476;50.002;11.854;2023-02-28T10:11:38;12.47;;;7.27;;
46729;SDS011;32476;50.002;11.854;2023-02-28T10:14:16;12.03;;;7.37;;
46729;SDS011;32476;50.002;11.854;2023-02-28T10:17:51;12.70;;;7.50;;
46729;SDS011;32476;50.002;11.854;2023-02-28T10:25:59;13.47;;;7.23;;
46729;SDS011;32476;50.002;11.854;2023-02-28T10:28:33;13.07;;;7.27;;
46729;SDS011;32476;50.002;11.854;2023-02-28T10:31:01;14.20;;;8.17;;
46729;SDS011;32476;50.002;11.854;2023-02-28T10:33:35;13.27;;;7.83;;
46729;SDS011;32476;50.002;11.854;2023-02-28T10:36:03;12.73;;;7.80;;
46729;SDS011;32476;50.002;11.854;2023-02-28T10:38:36;12.93;;;7.37;;
46729;SDS011;32476;50.002;11.854;2023-02-28T10:41:15;14.63;;;7.80;;
46729;SDS011;32476;50.002;11.854;2023-02-28T10:43:53;15.33;;;8.20;;
46729;SDS011;32476;50.002;11.854;2023-02-28T10:46:41;15.40;;;8.37;;
46729;SDS011;32476;50.002;11.854;2023-02-28T10:49:15;14.33;;;8.20;;
46729;SDS011;32476;50.002;11.854;2023-02-28T10:51:49;17.87;;;8.33;;
46729;SDS011;32476;50.002;11.854;2023-02-28T10:54:35;15.83;;;7.77;;
46729;SDS011;32476;50.002;11.854;2023-02-28T10:57:18;16.00;;;8.47;;
46729;SDS011;32476;50.002;11.854;2023-02-28T10:59:51;14.17;;;8.83;;
46729;SDS011;32476;50.002;11.854;2023-02-28T11:02:32;13.73;;;7.87;;
46729;SDS011;32476;50.002;11.854;2023-02-28T11:05:01;12.83;;;7.27;;
46729;SDS011;32476;50.002;11.854;2023-02-28T11:07:29;13.30;;;8.13;;
46729;SDS011;32476;50.002;11.854;2023-02-28T11:09:56;11.77;;;7.77;;
46729;SDS011;32476;50.002;11.854;2023-02-28T11:12:28;11.13;;;7.13;;
46729;SDS011;32476;50.002;11.854;2023-02-28T11:15:04;11.87;;;7.40;;
46729;SDS011;32476;50.002;11.854;2023-02-28T11:18:06;14.57;;;8.20;;
46729;SDS011;32476;50.002;11.854;2023-02-28T11:20:58;13.13;;;7.50;;
46729;SDS011;32476;50.002;11.854;2023-02-28T11:23:26;10.87;;;7.20;;
46729;SDS011;32476;50.002;11.854;2023-02-28T11:26:00;10.77;;;6.20;;
46729;SDS011;32476;50.002;11.854;2023-02-28T11:28:33;11.30;;;6.93;;
46729;SDS011;32476;50.002;11.854;2023-02-28T11:33:44;13.13;;;7.40;;
46729;SDS011;32476;50.002;11.854;2023-02-28T11:38:55;13.83;;;6.40;;
46729;SDS011;32476;50.002;11.854;2023-02-28T11:59:14;24.10;;;14.40;;
46729;SDS011;32476;50.002;11.854;2023-02-28T12:20:38;11.53;;;7.47;;
46729;SDS011;32476;50.002;11.854;2023-02-28T12:23:23;12.07;;;6.53;;
46729;SDS011;32476;50.002;11.854;2023-02-28T12:26:07;10.77;;;7.27;;
46729;SDS011;32476;50.002;11.854;2023-02-28T12:29:00;12.20;;;7.00;;
46729;SDS011;32476;50.002;11.854;2023-02-28T12:31:48;16.73;;;7.63;;
46729;SDS011;32476;50.002;11.854;2023-02-28T12:34:39;14.37;;;7.20;;
46729;SDS011;32476;50.002;11.854;2023-02-28T12:37:13;11.83;;;7.00;;
46729;SDS011;32476;50.002;11.854;2023-02-28T12:39:56;14.43;;;7.63;;
46729;SDS011;32476;50.002;11.854;2023-02-28T12:42:32;11.27;;;7.13;;
46729;SDS011;32476;50.002;11.854;2023-02-28T12:45:13;12.13;;;7.10;;
46729;SDS011;32476;50.002;11.854;2023-02-28T12:47:46;11.63;;;6.93;;
46729;SDS011;32476;50.002;11.854;2023-02-28T12:50:18;14.33;;;6.93;;
46729;SDS011;32476;50.002;11.854;2023-02-28T12:52:52;10.37;;;6.80;;
46729;SDS011;32476;50.002;11.854;2023-02-28T12:58:38;10.03;;;5.90;;
46729;SDS011;32476;50.002;11.854;2023-02-28T13:04:03;9.97;;;6.40;;
46729;SDS011;32476;50.002;11.854;2023-02-28T13:07:16;16.20;;;8.27;;
46729;SDS011;32476;50.002;11.854;2023-02-28T13:10:46;11.23;;;7.03;;
46729;SDS011;32476;50.002;11.854;2023-02-28T13:13:21;14.83;;;7.40;;
46729;SDS011;32476;50.002;11.854;2023-02-28T13:15:58;13.00;;;7.40;;
46729;SDS011;32476;50.002;11.854;2023-02-28T13:18:42;12.03;;;6.57;;
46729;SDS011;32476;50.002;11.854;2023-02-28T13:21:24;13.70;;;9.23;;
46729;SDS011;32476;50.002;11.854;2023-02-28T13:24:01;11.17;;;7.27;;
46729;SDS011;32476;50.002;11.854;2023-02-28T13:34:32;13.80;;;7.87;;
46729;SDS011;32476;50.002;11.854;2023-02-28T13:39:53;11.53;;;7.07;;
46729;SDS011;32476;50.002;11.854;2023-02-28T13:47:59;11.80;;;8.00;;
46729;SDS011;32476;50.002;11.854;2023-02-28T13:50:35;15.27;;;8.47;;
46729;SDS011;32476;50.002;11.854;2023-02-28T13:55:46;12.17;;;8.30;;
46729;SDS011;32476;50.002;11.854;2023-02-28T13:58:54;12.13;;;7.53;;
46729;SDS011;32476;50.002;11.854;2023-02-28T14:01:49;17.37;;;10.53;;
46729;SDS011;32476;50.002;11.854;2023-02-28T14:08:04;19.43;;;10.70;;
46729;SDS011;32476;50.002;11.854;2023-02-28T14:10:36;17.53;;;9.40;;
46729;SDS011;32476;50.002;11.854;2023-02-28T14:16:10;12.20;;;7.63;;
46729;SDS011;32476;50.002;11.854;2023-02-28T14:18:41;16.70;;;7.70;;
46729;SDS011;32476;50.002;11.854;2023-02-28T14:30:11;13.77;;;8.30;;
46729;SDS011;32476;50.002;11.854;2023-02-28T14:38:55;16.20;;;9.23;;
46729;SDS011;32476;50.002;11.854;2023-02-28T14:41:33;12.30;;;7.60;;
46729;SDS011;32476;50.002;11.854;2023-02-28T14:44:25;13.53;;;8.47;;
46729;SDS011;32476;50.002;11.854;2023-02-28T14:46:53;16.13;;;9.07;;
46729;SDS011;32476;50.002;11.854;2023-02-28T14:49:26;16.87;;;10.20;;
46729;SDS011;32476;50.002;11.854;2023-02-28T14:52:05;15.77;;;9.00;;
46729;SDS011;32476;50.002;11.854;2023-02-28T14:54:42;17.60;;;11.00;;
46729;SDS011;32476;50.002;11.854;2023-02-28T15:00:03;17.20;;;9.27;;
46729;SDS011;32476;50.002;11.854;2023-02-28T15:06:20;15.03;;;9.27;;
46729;SDS011;32476;50.002;11.854;2023-02-28T15:08:47;16.63;;;10.07;;
46729;SDS011;32476;50.002;11.854;2023-02-28T15:11:14;15.50;;;9.20;;
46729;SDS011;32476;50.002;11.854;2023-02-28T15:13:48;17.47;;;9.13;;
46729;SDS011;32476;50.002;11.854;2023-02-28T15:16:19;14.00;;;9.40;;
46729;SDS011;32476;50.002;11.854;2023-02-28T15:18:55;13.17;;;8.83;;
46729;SDS011;32476;50.002;11.854;2023-02-28T15:21:25;14.33;;;9.03;;
46729;SDS011;32476;50.002;11.854;2023-02-28T15:24:58;15.27;;;9.30;;
46729;SDS011;32476;50.002;11.854;2023-02-28T15:27:06;17.07;;;8.90;;
46729;SDS011;32476;50.002;11.854;2023-02-28T15:29:44;14.77;;;9.67;;
46729;SDS011;32476;50.002;11.854;2023-02-28T15:37:57;17.33;;;10.47;;
46729;SDS011;32476;50.002;11.854;2023-02-28T15:40:49;16.03;;;9.83;;
46729;SDS011;32476;50.002;11.854;2023-02-28T15:46:03;19.33;;;11.03;;
46729;SDS011;32476;50.002;11.854;2023-02-28T15:48:51;14.87;;;9.80;;
46729;SDS011;32476;50.002;11.854;2023-02-28T15:51:22;13.10;;;9.13;;
46729;SDS011;32476;50.002;11.854;2023-02-28T15:53:58;15.47;;;10.20;;
46729;SDS011;32476;50.002;11.854;2023-02-28T15:56:44;17.07;;;9.63;;
46729;SDS011;32476;50.002;11.854;2023-02-28T15:59:14;13.87;;;8.37;;
46729;SDS011;32476;50.002;11.854;2023-02-28T16:02:16;21.50;;;9.43;;
46729;SDS011;32476;50.002;11.854;2023-02-28T16:07:33;18.57;;;10.53;;
46729;SDS011;32476;50.002;11.854;2023-02-28T16:10:01;17.43;;;9.77;;
46729;SDS011;32476;50.002;11.854;2023-02-28T16:12:28;13.10;;;8.93;;
46729;SDS011;32476;50.002;11.854;2023-02-28T16:15:00;18.47;;;10.10;;
46729;SDS011;32476;50.002;11.854;2023-02-28T16:17:34;14.97;;;9.53;;
46729;SDS011;32476;50.002;11.854;2023-02-28T16:20:14;16.83;;;9.90;;
46729;SDS011;32476;50.002;11.854;2023-02-28T16:22:49;15.50;;;10.13;;
46729;SDS011;32476;50.002;11.854;2023-02-28T16:25:18;17.07;;;10.37;;
46729;SDS011;32476;50.002;11.854;2023-02-28T16:27:48;18.10;;;10.23;;
46729;SDS011;32476;50.002;11.854;2023-02-28T16:30:24;16.07;;;9.47;;
46729;SDS011;32476;50.002;11.854;2023-02-28T16:32:54;18.43;;;10.77;;
46729;SDS011;32476;50.002;11.854;2023-02-28T16:35:22;21.10;;;11.03;;
46729;SDS011;32476;50.002;11.854;2023-02-28T16:37:50;21.50;;;10.67;;
46729;SDS011;32476;50.002;11.854;2023-02-28T16:40:21;25.03;;;13.00;;
46729;SDS011;32476;50.002;11.854;2023-02-28T16:42:53;20.43;;;10.87;;
46729;SDS011;32476;50.002;11.854;2023-02-28T16:45:25;17.97;;;10.43;;
46729;SDS011;32476;50.002;11.854;2023-02-28T16:47:55;16.83;;;10.50;;
46729;SDS011;32476;50.002;11.854;2023-02-28T16:50:23;16.30;;;9.40;;
46729;SDS011;32476;50.002;11.854;2023-02-28T16:52:52;24.77;;;13.63;;
46729;SDS011;32476;50.002;11.854;2023-02-28T16:55:21;16.50;;;9.77;;
46729;SDS011;32476;50.002;11.854;2023-02-28T16:57:59;23.57;;;11.93;;
46729;SDS011;32476;50.002;11.854;2023-02-28T17:00:28;19.63;;;10.13;;
46729;SDS011;32476;50.002;11.854;2023-02-28T17:02:58;16.90;;;10.00;;
46729;SDS011;32476;50.002;11.854;2023-02-28T17:05:24;15.53;;;9.10;;
46729;SDS011;32476;50.002;11.854;2023-02-28T17:07:56;15.50;;;9.53;;
46729;SDS011;32476;50.002;11.854;2023-02-28T17:10:23;16.40;;;9.67;;
46729;SDS011;32476;50.002;11.854;2023-02-28T17:12:51;18.37;;;10.30;;